Time;durP1;ratioP1;P1;durP2;ratioP2;P2;SDS_P1;SDS_P2;PMS_P1;PMS_P2;Temp;Humidity;BMP_temperature;BMP_pressure;BME280_temperature;BME280_humidity;BME280_pressure;Samples;Min_cycle;Max_cycle;Signal;HPM_P1;HPM_P2
2022/02/21 00:00:18;;;;;;;6.28;1.23;;;6.30;99.90;;;;;;6153385;23;20017;-84
2022/02/21 00:02:46;;;;;;;3.80;0.30;;;6.50;99.90;;;;;;6177444;23;20013;-84
2022/02/21 00:05:16;;;;;;;5.60;0.25;;;6.40;99.90;;;;;;6177978;23;20341;-86
2022/02/21 00:07:43;;;;;;;4.60;0.30;;;6.30;99.90;;;;;;6177121;23;20013;-82
2022/02/21 00:10:11;;;;;;;8.18;0.40;;;6.50;99.90;;;;;;6177582;23;20088;-87
2022/02/21 00:12:38;;;;;;;7.30;0.40;;;6.40;99.90;;;;;;6152422;23;20023;-81
2022/02/21 00:15:04;;;;;;;9.18;0.50;;;6.10;99.90;;;;;;6153149;23;20020;-85
2022/02/21 00:17:30;;;;;;;5.22;0.40;;;5.90;99.90;;;;;;6177302;23;20068;-84
2022/02/21 00:19:56;;;;;;;5.38;0.30;;;5.80;99.90;;;;;;6153421;23;20013;-83
2022/02/21 00:22:22;;;;;;;8.57;0.38;;;5.70;99.90;;;;;;6152590;23;20009;-84
2022/02/21 00:24:48;;;;;;;9.00;0.30;;;5.60;99.90;;;;;;6152340;23;20013;-85
2022/02/21 00:27:13;;;;;;;13.60;0.40;;;5.80;99.90;;;;;;6177658;23;20027;-85
2022/02/21 00:29:39;;;;;;;7.75;0.50;;;5.80;99.90;;;;;;6151993;23;20155;-80
2022/02/21 00:32:05;;;;;;;7.25;0.45;;;5.90;99.90;;;;;;6152184;23;20009;-84
2022/02/21 00:34:31;;;;;;;8.93;0.52;;;5.90;99.90;;;;;;6151157;23;20047;-83
2022/02/21 00:36:56;;;;;;;8.48;0.38;;;5.80;99.90;;;;;;6151726;23;20009;-84
2022/02/21 00:39:23;;;;;;;7.88;0.38;;;5.60;99.90;;;;;;6175936;23;20009;-81
2022/02/21 00:41:48;;;;;;;5.65;0.60;;;5.60;99.90;;;;;;6151570;23;20036;-82
2022/02/21 00:44:14;;;;;;;8.80;0.80;;;5.60;99.90;;;;;;6178541;23;20088;-83
2022/02/21 00:46:40;;;;;;;9.07;0.45;;;5.50;99.90;;;;;;6176179;23;20029;-79
2022/02/21 00:49:06;;;;;;;11.65;0.65;;;5.10;99.90;;;;;;6176806;23;20533;-80
2022/02/21 00:51:32;;;;;;;6.32;0.40;;;5.10;99.90;;;;;;6175664;23;20365;-80
2022/02/21 00:53:57;;;;;;;11.80;0.75;;;5.20;99.90;;;;;;6175966;23;20012;-80
2022/02/21 00:56:23;;;;;;;11.50;0.63;;;5.40;99.90;;;;;;6151569;23;20021;-80
2022/02/21 00:58:49;;;;;;;11.65;0.77;;;5.40;99.90;;;;;;6175579;23;20020;-81
2022/02/21 01:01:14;;;;;;;9.48;0.50;;;5.40;99.90;;;;;;6182785;23;20012;-81
2022/02/21 01:03:42;;;;;;;7.10;0.50;;;5.50;99.90;;;;;;6180756;23;20016;-80
2022/02/21 01:06:07;;;;;;;12.73;0.70;;;5.50;99.90;;;;;;6180864;23;20541;-82
2022/02/21 01:08:33;;;;;;;12.05;0.90;;;5.50;99.90;;;;;;6180321;23;20056;-80
2022/02/21 01:10:59;;;;;;;12.23;1.95;;;5.60;99.90;;;;;;6207136;23;20016;-82
2022/02/21 01:13:24;;;;;;;12.88;1.25;;;5.70;99.90;;;;;;6181513;23;20358;-82
2022/02/21 01:15:53;;;;;;;14.80;0.70;;;5.70;99.90;;;;;;6208055;23;20016;-81
2022/02/21 01:18:19;;;;;;;14.40;0.93;;;5.80;99.90;;;;;;6181799;23;20004;-83
2022/02/21 01:20:45;;;;;;;12.23;0.75;;;5.90;99.90;;;;;;6207522;23;20013;-82
2022/02/21 01:23:11;;;;;;;5.90;0.75;;;5.70;99.90;;;;;;6156022;23;20009;-81
2022/02/21 01:25:37;;;;;;;4.35;0.20;;;4.90;99.90;;;;;;6181749;23;20008;-82
2022/02/21 01:28:03;;;;;;;5.40;0.30;;;4.10;99.90;;;;;;6156373;23;20475;-82
2022/02/21 01:30:29;;;;;;;9.85;0.70;;;4.00;99.90;;;;;;6180820;23;20017;-81
2022/02/21 01:32:55;;;;;;;5.90;0.20;;;4.20;99.90;;;;;;6156504;23;20011;-80
2022/02/21 01:35:20;;;;;;;6.65;0.40;;;4.20;99.90;;;;;;6181504;23;20012;-82
2022/02/21 01:37:46;;;;;;;10.45;0.60;;;4.10;99.90;;;;;;6156166;23;20011;-82
2022/02/21 01:40:12;;;;;;;4.07;0.40;;;4.30;99.90;;;;;;6181865;23;20107;-84
2022/02/21 01:42:38;;;;;;;8.15;0.40;;;4.50;99.90;;;;;;6181508;23;20023;-82
2022/02/21 01:45:05;;;;;;;13.88;0.70;;;4.70;99.90;;;;;;6206960;23;20396;-82
2022/02/21 01:47:31;;;;;;;18.15;1.02;;;5.10;99.90;;;;;;6182079;23;20005;-80
2022/02/21 01:49:57;;;;;;;15.05;0.50;;;5.30;99.90;;;;;;6156313;23;20383;-81
2022/02/21 01:52:23;;;;;;;18.05;1.15;;;5.40;99.90;;;;;;6156521;23;20472;-82
2022/02/21 01:54:50;;;;;;;10.00;0.60;;;5.40;99.90;;;;;;6181268;23;20088;-83
2022/02/21 01:57:16;;;;;;;9.98;0.50;;;5.50;99.90;;;;;;6180799;23;20008;-84
2022/02/21 01:59:42;;;;;;;8.95;0.60;;;5.50;99.90;;;;;;6181679;23;20009;-83
2022/02/21 02:02:08;;;;;;;9.73;0.93;;;5.40;99.90;;;;;;6176313;23;20482;-81
2022/02/21 02:04:35;;;;;;;10.88;0.40;;;5.50;99.90;;;;;;6176408;23;20071;-81
2022/02/21 02:07:04;;;;;;;7.63;0.60;;;5.50;99.90;;;;;;6176333;23;20005;-86
2022/02/21 02:09:30;;;;;;;7.15;0.40;;;5.50;99.90;;;;;;6151960;23;20102;-85
2022/02/21 02:11:56;;;;;;;10.88;0.52;;;5.30;99.90;;;;;;6152498;23;20013;-85
2022/02/21 02:14:36;;;;;;;10.52;0.60;;;5.30;99.90;;;;;;6152101;23;20402;-87
2022/02/21 02:17:06;;;;;;;11.05;0.65;;;5.30;99.90;;;;;;6153110;23;20016;-85
2022/02/21 02:19:32;;;;;;;12.35;1.13;;;5.30;99.90;;;;;;6151593;23;20005;-86
2022/02/21 02:22:06;;;;;;;11.38;0.70;;;5.40;99.90;;;;;;6177858;23;20023;-84
2022/02/21 02:24:35;;;;;;;11.13;0.80;;;5.40;99.90;;;;;;6175564;23;20013;-83
2022/02/21 02:27:00;;;;;;;9.98;0.50;;;5.50;99.90;;;;;;6175947;23;20020;-84
2022/02/21 02:29:26;;;;;;;12.20;0.60;;;5.50;99.90;;;;;;6152180;23;20012;-81
2022/02/21 02:31:51;;;;;;;9.57;0.70;;;5.30;99.90;;;;;;6152978;23;20510;-84
2022/02/21 02:34:17;;;;;;;12.48;0.60;;;5.30;99.90;;;;;;6179169;23;20067;-80
2022/02/21 02:36:46;;;;;;;12.80;1.10;;;5.30;99.90;;;;;;6152762;23;20009;-85
2022/02/21 02:39:12;;;;;;;7.63;0.52;;;5.40;99.90;;;;;;6153563;23;20279;-81
2022/02/21 02:41:40;;;;;;;8.70;0.68;;;5.20;99.90;;;;;;6152679;23;20013;-84
2022/02/21 02:44:06;;;;;;;12.70;1.15;;;5.40;99.90;;;;;;6179302;23;20376;-82
2022/02/21 02:46:31;;;;;;;12.95;0.95;;;5.40;99.90;;;;;;6177491;23;20013;-79
2022/02/21 02:48:57;;;;;;;6.70;0.45;;;5.10;99.90;;;;;;6152386;23;20063;-81
2022/02/21 02:51:22;;;;;;;8.75;0.65;;;4.60;99.90;;;;;;6177458;23;20016;-81
2022/02/21 02:53:49;;;;;;;6.65;0.82;;;4.50;99.90;;;;;;6176618;23;20040;-79
2022/02/21 02:56:14;;;;;;;8.65;0.55;;;4.40;99.90;;;;;;6152484;23;20017;-82
2022/02/21 02:58:40;;;;;;;11.73;0.50;;;4.40;99.90;;;;;;6151857;23;20334;-82
2022/02/21 03:01:06;;;;;;;16.88;0.73;;;4.30;99.90;;;;;;6155570;23;20005;-81
2022/02/21 03:03:31;;;;;;;7.70;0.43;;;4.40;99.90;;;;;;6181057;23;20055;-79
2022/02/21 03:05:57;;;;;;;8.05;0.43;;;4.70;99.90;;;;;;6182212;23;20016;-82
2022/02/21 03:08:23;;;;;;;9.27;0.63;;;4.90;99.90;;;;;;6182374;23;20326;-80
2022/02/21 03:10:49;;;;;;;11.95;0.93;;;4.90;99.90;;;;;;6182441;23;20024;-82
2022/02/21 03:13:14;;;;;;;6.63;0.50;;;4.90;99.90;;;;;;6182594;23;20013;-79
2022/02/21 03:15:40;;;;;;;9.98;0.52;;;4.80;99.90;;;;;;6182125;23;20024;-84
2022/02/21 03:18:05;;;;;;;9.63;0.85;;;4.80;99.90;;;;;;6181823;23;20071;-82
2022/02/21 03:20:31;;;;;;;7.90;0.50;;;4.80;99.90;;;;;;6182389;23;20369;-81
2022/02/21 03:22:56;;;;;;;9.15;0.63;;;4.70;99.90;;;;;;6182383;23;20434;-82
2022/02/21 03:25:22;;;;;;;10.75;0.50;;;4.60;99.90;;;;;;6182824;23;20457;-82
2022/02/21 03:27:48;;;;;;;8.90;0.70;;;4.60;99.90;;;;;;6182185;23;20333;-82
2022/02/21 03:30:14;;;;;;;16.08;1.13;;;4.60;99.90;;;;;;6181898;23;20008;-82
2022/02/21 03:32:40;;;;;;;7.28;0.63;;;4.60;99.90;;;;;;6156637;23;20013;-82
2022/02/21 03:35:06;;;;;;;14.77;1.10;;;4.70;99.90;;;;;;6207578;23;20043;-82
2022/02/21 03:37:32;;;;;;;10.32;0.60;;;4.70;99.90;;;;;;6208064;23;20008;-83
2022/02/21 03:39:58;;;;;;;12.82;1.33;;;4.80;99.90;;;;;;6157355;23;20063;-80
2022/02/21 03:42:24;;;;;;;9.05;0.45;;;4.70;99.90;;;;;;6182462;23;20009;-81
2022/02/21 03:44:49;;;;;;;8.05;0.60;;;4.50;99.90;;;;;;6207116;23;20008;-80
2022/02/21 03:47:15;;;;;;;10.65;0.40;;;4.30;99.90;;;;;;6181437;23;20011;-81
2022/02/21 03:49:41;;;;;;;9.57;1.33;;;4.00;99.90;;;;;;6181765;23;20013;-84
2022/02/21 03:52:07;;;;;;;13.20;1.10;;;3.90;99.90;;;;;;6182705;23;20416;-84
2022/02/21 03:54:32;;;;;;;7.88;0.68;;;3.90;99.90;;;;;;6181366;23;20103;-82
2022/02/21 03:56:58;;;;;;;8.23;0.65;;;3.90;99.90;;;;;;6132857;23;20448;-82
2022/02/21 03:59:23;;;;;;;10.65;0.55;;;4.10;99.90;;;;;;6157218;23;20017;-83
2022/02/21 04:01:49;;;;;;;9.10;0.50;;;4.20;99.90;;;;;;6176474;23;20025;-82
2022/02/21 04:04:15;;;;;;;8.57;0.60;;;4.20;99.90;;;;;;6177242;23;19997;-83
2022/02/21 04:06:41;;;;;;;13.93;1.25;;;4.30;99.90;;;;;;6151326;23;20004;-83
2022/02/21 04:09:06;;;;;;;14.30;0.93;;;4.20;99.90;;;;;;6151302;23;20354;-81
2022/02/21 04:11:32;;;;;;;13.88;0.60;;;4.20;99.90;;;;;;6151920;23;20346;-82
2022/02/21 04:13:58;;;;;;;8.57;0.60;;;4.30;99.90;;;;;;6151607;23;20433;-81
2022/02/21 04:16:23;;;;;;;9.52;0.50;;;4.30;99.90;;;;;;6176238;23;20027;-82
2022/02/21 04:18:49;;;;;;;11.65;1.23;;;4.30;99.90;;;;;;6176133;23;20104;-82
2022/02/21 04:21:15;;;;;;;10.07;0.50;;;4.40;99.90;;;;;;6152403;23;20016;-83
2022/02/21 04:23:40;;;;;;;15.82;0.60;;;4.40;99.90;;;;;;6176777;23;20071;-84
2022/02/21 04:26:06;;;;;;;8.60;0.63;;;4.50;99.90;;;;;;6176972;23;20034;-82
2022/02/21 04:28:31;;;;;;;9.13;0.57;;;4.50;99.90;;;;;;6151820;23;20008;-82
2022/02/21 04:30:57;;;;;;;12.15;0.75;;;4.50;99.90;;;;;;6176494;23;20001;-82
2022/02/21 04:33:23;;;;;;;7.95;0.50;;;4.50;99.90;;;;;;6152621;23;20088;-80
2022/02/21 04:35:49;;;;;;;12.82;0.75;;;4.60;99.90;;;;;;6151103;23;20056;-81
2022/02/21 04:38:15;;;;;;;13.77;0.70;;;4.60;99.90;;;;;;6176636;23;20382;-81
2022/02/21 04:40:41;;;;;;;12.00;0.93;;;4.50;99.90;;;;;;6175720;23;20020;-82
2022/02/21 04:43:07;;;;;;;10.80;0.50;;;4.70;99.90;;;;;;6151776;23;20001;-82
2022/02/21 04:45:32;;;;;;;14.55;1.10;;;4.70;99.90;;;;;;6151089;23;20020;-79
2022/02/21 04:47:58;;;;;;;8.90;0.63;;;4.70;99.90;;;;;;6151726;23;20005;-80
2022/02/21 04:50:24;;;;;;;9.10;0.70;;;4.80;99.90;;;;;;6150940;23;20311;-83
2022/02/21 04:52:50;;;;;;;10.15;0.65;;;4.80;99.90;;;;;;6151445;23;20013;-82
2022/02/21 04:55:15;;;;;;;8.88;1.02;;;4.70;99.90;;;;;;6151482;23;20083;-83
2022/02/21 04:57:41;;;;;;;11.20;0.75;;;4.80;99.90;;;;;;6151216;23;20009;-83
2022/02/21 05:00:11;;;;;;;10.52;0.63;;;4.70;99.90;;;;;;6176319;23;20005;-83
2022/02/21 05:02:37;;;;;;;9.95;0.50;;;4.60;99.90;;;;;;6127937;23;20470;-83
2022/02/21 05:05:03;;;;;;;10.57;0.68;;;4.70;99.90;;;;;;6176472;23;20540;-82
2022/02/21 05:07:30;;;;;;;7.18;0.55;;;4.60;99.90;;;;;;6151918;23;20019;-83
2022/02/21 05:09:56;;;;;;;10.80;0.60;;;4.60;99.90;;;;;;6176437;23;20052;-83
2022/02/21 05:12:21;;;;;;;8.50;0.57;;;4.50;99.90;;;;;;6151297;23;20013;-82
2022/02/21 05:14:47;;;;;;;11.02;0.75;;;4.40;99.90;;;;;;6176085;23;20024;-82
2022/02/21 05:17:13;;;;;;;7.82;0.93;;;4.50;99.90;;;;;;6152045;23;20008;-82
2022/02/21 05:19:38;;;;;;;11.20;1.33;;;4.50;99.90;;;;;;6151281;23;20398;-82
2022/02/21 05:22:04;;;;;;;6.07;0.30;;;4.50;99.90;;;;;;6176568;23;20017;-82
2022/02/21 05:24:29;;;;;;;10.07;0.70;;;4.50;99.90;;;;;;6176209;23;20028;-83
2022/02/21 05:26:55;;;;;;;12.18;0.75;;;4.50;99.90;;;;;;6151858;23;20009;-83
2022/02/21 05:29:21;;;;;;;9.70;0.60;;;4.50;99.90;;;;;;6175771;23;20509;-82
2022/02/21 05:31:47;;;;;;;11.95;1.00;;;4.40;99.90;;;;;;6177710;23;20060;-82
2022/02/21 05:34:13;;;;;;;6.40;0.57;;;4.50;99.90;;;;;;6151559;23;20044;-85
2022/02/21 05:36:39;;;;;;;7.80;0.45;;;4.70;99.90;;;;;;6174417;23;20497;-83
2022/02/21 05:39:04;;;;;;;7.35;0.45;;;4.80;99.90;;;;;;6176096;23;20009;-84
2022/02/21 05:41:30;;;;;;;5.28;0.47;;;4.70;99.90;;;;;;6177281;23;20013;-82
2022/02/21 05:43:56;;;;;;;8.40;0.40;;;4.60;99.90;;;;;;6150784;23;20493;-82
2022/02/21 05:46:21;;;;;;;6.53;0.40;;;4.60;99.90;;;;;;6176145;23;20069;-81
2022/02/21 05:48:47;;;;;;;8.63;0.70;;;4.50;99.90;;;;;;6151015;23;20204;-85
2022/02/21 05:51:12;;;;;;;9.50;0.60;;;4.60;99.90;;;;;;6150942;23;20008;-83
2022/02/21 05:53:42;;;;;;;10.65;0.90;;;4.60;99.90;;;;;;6176387;23;20088;-80
2022/02/21 05:56:08;;;;;;;12.63;0.50;;;4.70;99.90;;;;;;6151838;23;20157;-83
2022/02/21 05:58:34;;;;;;;9.35;0.50;;;4.70;99.90;;;;;;6150922;23;20361;-81
2022/02/21 06:00:59;;;;;;;13.40;0.60;;;4.60;99.90;;;;;;6178369;23;20036;-86
2022/02/21 06:03:25;;;;;;;12.88;0.68;;;4.60;99.90;;;;;;6206525;23;20012;-80
2022/02/21 06:05:51;;;;;;;13.85;0.70;;;4.50;99.90;;;;;;6183293;23;20457;-80
2022/02/21 06:08:17;;;;;;;9.25;0.50;;;4.50;99.90;;;;;;6208608;23;20013;-82
2022/02/21 06:10:42;;;;;;;9.23;0.70;;;4.50;99.90;;;;;;6182710;23;20012;-83
2022/02/21 06:13:08;;;;;;;11.95;0.50;;;4.50;99.90;;;;;;6182409;23;20005;-81
2022/02/21 06:15:34;;;;;;;7.75;0.90;;;4.40;99.90;;;;;;6209138;23;20096;-80
2022/02/21 06:17:59;;;;;;;8.35;0.40;;;4.40;99.90;;;;;;6183365;23;20019;-84
2022/02/21 06:20:26;;;;;;;8.55;0.52;;;4.40;99.90;;;;;;6182591;23;20019;-82
2022/02/21 06:22:52;;;;;;;7.22;0.40;;;4.40;99.90;;;;;;6157591;23;20468;-81
2022/02/21 06:25:18;;;;;;;13.20;1.17;;;4.30;99.90;;;;;;6158078;23;20016;-84
2022/02/21 06:27:44;;;;;;;7.28;0.77;;;4.40;99.90;;;;;;6181958;23;20462;-84
2022/02/21 06:30:10;;;;;;;13.30;0.73;;;4.40;99.90;;;;;;6182378;23;20198;-82
2022/02/21 06:32:36;;;;;;;10.50;0.95;;;4.40;99.90;;;;;;6182915;23;20395;-84
2022/02/21 06:35:01;;;;;;;7.32;0.50;;;4.30;99.90;;;;;;6183207;23;20027;-81
2022/02/21 06:37:27;;;;;;;10.02;0.50;;;4.40;99.90;;;;;;6181725;23;20376;-80
2022/02/21 06:39:53;;;;;;;12.43;0.93;;;4.40;99.90;;;;;;6183108;23;20027;-82
2022/02/21 06:42:19;;;;;;;9.05;0.60;;;4.30;99.90;;;;;;6182900;23;20016;-82
2022/02/21 06:44:44;;;;;;;10.88;0.85;;;4.40;99.90;;;;;;6182186;23;20012;-83
2022/02/21 06:47:10;;;;;;;12.05;0.77;;;4.40;99.90;;;;;;6182272;23;20410;-80
2022/02/21 06:49:36;;;;;;;14.55;0.85;;;4.30;99.90;;;;;;6208579;23;20008;-80
2022/02/21 06:52:03;;;;;;;10.13;0.80;;;4.40;99.90;;;;;;6182693;23;20008;-86
2022/02/21 06:54:28;;;;;;;10.45;0.75;;;4.40;99.90;;;;;;6181997;23;20094;-84
2022/02/21 06:56:54;;;;;;;13.60;0.70;;;4.50;99.90;;;;;;6207302;23;20083;-83
2022/02/21 06:59:19;;;;;;;12.93;0.80;;;4.50;99.90;;;;;;6181807;23;20008;-83
2022/02/21 07:01:45;;;;;;;12.95;0.77;;;4.50;99.90;;;;;;6208529;23;20016;-82
2022/02/21 07:04:11;;;;;;;5.25;0.50;;;4.50;99.90;;;;;;6182277;23;20059;-86
2022/02/21 07:06:36;;;;;;;6.00;0.40;;;4.50;99.90;;;;;;6181513;23;20012;-85
2022/02/21 07:09:03;;;;;;;12.35;0.50;;;4.50;99.90;;;;;;6157101;23;20032;-82
2022/02/21 07:11:29;;;;;;;14.48;0.82;;;4.60;99.90;;;;;;6156975;23;20017;-81
2022/02/21 07:13:54;;;;;;;9.35;0.60;;;4.80;99.90;;;;;;6182489;23;20146;-87
2022/02/21 07:16:20;;;;;;;10.23;0.60;;;4.70;99.90;;;;;;6181959;23;20319;-86
2022/02/21 07:18:46;;;;;;;11.82;0.85;;;4.80;99.90;;;;;;6182041;23;20028;-87
2022/02/21 07:21:11;;;;;;;9.73;0.60;;;4.90;99.90;;;;;;6182736;23;20074;-87
2022/02/21 07:23:37;;;;;;;8.23;0.45;;;4.90;99.90;;;;;;6181956;23;20020;-82
2022/02/21 07:26:04;;;;;;;8.63;0.70;;;4.90;99.90;;;;;;6182286;23;20000;-84
2022/02/21 07:28:30;;;;;;;6.32;0.35;;;4.90;99.90;;;;;;6157046;23;20227;-85
2022/02/21 07:30:56;;;;;;;8.23;0.57;;;4.90;99.90;;;;;;6157932;23;20064;-85
2022/02/21 07:33:21;;;;;;;8.43;0.70;;;4.90;99.90;;;;;;6181994;23;20008;-82
2022/02/21 07:35:47;;;;;;;10.77;0.60;;;5.00;99.90;;;;;;6181298;23;20148;-83
2022/02/21 07:38:12;;;;;;;8.70;0.50;;;5.00;99.90;;;;;;6181356;23;20092;-81
2022/02/21 07:40:39;;;;;;;11.43;0.60;;;5.00;99.90;;;;;;6180708;23;20012;-84
2022/02/21 07:43:05;;;;;;;4.50;0.50;;;5.00;99.90;;;;;;6182235;23;20004;-85
2022/02/21 07:45:30;;;;;;;12.60;0.50;;;5.10;99.90;;;;;;6181337;23;20020;-81
2022/02/21 07:47:57;;;;;;;7.50;0.65;;;5.10;99.90;;;;;;6180081;23;20008;-79
2022/02/21 07:50:25;;;;;;;7.90;0.63;;;5.10;99.90;;;;;;6180630;23;20013;-81
2022/02/21 07:52:52;;;;;;;11.35;1.50;;;5.10;99.90;;;;;;6180640;23;20005;-82
2022/02/21 07:55:18;;;;;;;11.90;0.50;;;5.10;99.90;;;;;;6156701;23;20016;-82
2022/02/21 07:57:45;;;;;;;11.45;0.63;;;5.20;99.90;;;;;;6180597;23;20011;-87
2022/02/21 08:00:13;;;;;;;10.82;0.68;;;5.20;99.90;;;;;;6181615;23;20009;-84
2022/02/21 08:02:40;;;;;;;11.63;1.23;;;5.30;99.90;;;;;;6150946;23;20025;-80
2022/02/21 08:05:06;;;;;;;10.88;0.60;;;5.20;99.90;;;;;;6175916;23;20004;-81
2022/02/21 08:07:32;;;;;;;8.60;0.47;;;5.30;99.90;;;;;;6175715;23;20084;-81
2022/02/21 08:09:58;;;;;;;10.25;0.50;;;5.30;99.90;;;;;;6151483;23;20444;-83
2022/02/21 08:12:24;;;;;;;12.82;0.50;;;5.40;99.90;;;;;;6176019;23;20120;-82
2022/02/21 08:14:49;;;;;;;9.55;0.60;;;5.50;99.90;;;;;;6150806;23;20017;-84
2022/02/21 08:17:15;;;;;;;6.60;0.43;;;5.50;99.90;;;;;;6177399;23;20063;-83
2022/02/21 08:19:41;;;;;;;10.73;0.60;;;5.50;99.90;;;;;;6176049;23;20012;-84
2022/02/21 08:22:08;;;;;;;10.93;0.77;;;5.60;99.90;;;;;;6176281;23;20113;-87
2022/02/21 08:24:33;;;;;;;8.30;0.40;;;5.60;99.90;;;;;;6150972;23;20024;-82
2022/02/21 08:26:59;;;;;;;5.80;0.40;;;5.60;99.90;;;;;;6176210;23;20009;-85
2022/02/21 08:29:25;;;;;;;8.20;0.80;;;5.60;99.90;;;;;;6150748;23;20013;-84
2022/02/21 08:31:51;;;;;;;10.20;0.40;;;5.60;99.90;;;;;;6151221;23;20013;-86
2022/02/21 08:34:18;;;;;;;10.15;0.93;;;5.60;99.90;;;;;;6150011;23;20009;-84
2022/02/21 08:36:45;;;;;;;6.60;0.50;;;5.50;99.90;;;;;;6174863;23;20128;-84
2022/02/21 08:39:11;;;;;;;6.72;0.32;;;5.50;99.90;;;;;;6151792;23;20016;-83
2022/02/21 08:41:37;;;;;;;7.95;0.45;;;5.40;99.90;;;;;;6175698;23;20350;-84
2022/02/21 08:44:03;;;;;;;7.85;0.43;;;5.40;99.90;;;;;;6152154;23;20009;-84
2022/02/21 08:46:28;;;;;;;7.55;0.63;;;5.40;99.90;;;;;;6176443;23;20009;-85
2022/02/21 08:48:54;;;;;;;8.27;0.60;;;5.40;99.90;;;;;;6150866;23;20011;-86
2022/02/21 08:51:21;;;;;;;8.52;0.50;;;5.50;99.90;;;;;;6151533;23;20016;-87
2022/02/21 08:53:46;;;;;;;8.18;0.50;;;5.50;99.90;;;;;;6151737;23;20009;-83
2022/02/21 08:56:12;;;;;;;5.45;0.40;;;5.60;99.90;;;;;;6176719;23;20370;-87
2022/02/21 08:58:38;;;;;;;4.72;0.40;;;5.50;99.90;;;;;;6151504;23;20005;-83
2022/02/21 09:01:04;;;;;;;6.38;0.50;;;5.40;99.90;;;;;;6154409;23;20036;-83
2022/02/21 09:03:30;;;;;;;6.40;0.40;;;5.40;99.90;;;;;;6181069;23;20091;-83
2022/02/21 09:05:56;;;;;;;7.25;0.40;;;5.30;99.90;;;;;;6205669;23;20036;-83
2022/02/21 09:08:22;;;;;;;9.05;0.50;;;5.20;99.90;;;;;;6181707;23;20012;-86
2022/02/21 09:10:48;;;;;;;9.70;0.57;;;5.10;99.90;;;;;;6181379;23;20008;-87
2022/02/21 09:13:13;;;;;;;5.95;0.45;;;5.00;99.90;;;;;;6156801;23;20016;-85
2022/02/21 09:15:39;;;;;;;7.43;0.50;;;4.90;99.90;;;;;;6180943;23;20028;-87
2022/02/21 09:18:06;;;;;;;7.40;0.43;;;4.70;99.90;;;;;;6181155;23;20066;-86
2022/02/21 09:20:32;;;;;;;5.78;0.60;;;4.60;99.90;;;;;;6180162;23;20020;-82
2022/02/21 09:22:59;;;;;;;6.47;0.43;;;4.50;99.90;;;;;;6181173;23;20009;-82
2022/02/21 09:25:26;;;;;;;7.47;0.52;;;4.50;99.90;;;;;;6155530;23;20119;-81
2022/02/21 09:27:52;;;;;;;11.65;0.75;;;4.50;99.90;;;;;;6179573;23;20011;-81
2022/02/21 09:30:18;;;;;;;6.53;0.57;;;4.50;99.90;;;;;;6206029;23;20004;-82
2022/02/21 09:32:45;;;;;;;7.20;0.70;;;4.40;99.90;;;;;;6179371;23;20020;-81
2022/02/21 09:35:11;;;;;;;8.05;0.75;;;4.40;99.90;;;;;;6204962;23;20027;-81
2022/02/21 09:37:38;;;;;;;7.15;0.60;;;4.40;99.90;;;;;;6180050;23;20401;-84
2022/02/21 09:40:11;;;;;;;6.68;0.63;;;4.40;99.90;;;;;;6179409;23;20024;-83
2022/02/21 09:42:38;;;;;;;9.00;1.15;;;4.30;99.90;;;;;;6179634;23;20009;-83
2022/02/21 09:45:07;;;;;;;8.98;0.60;;;4.20;99.90;;;;;;6179964;23;20017;-82
2022/02/21 09:47:34;;;;;;;11.70;0.63;;;4.20;99.90;;;;;;6179526;23;20005;-81
2022/02/21 09:50:00;;;;;;;9.20;0.60;;;4.20;99.90;;;;;;6154481;23;20069;-82
2022/02/21 09:52:27;;;;;;;7.65;0.50;;;4.20;99.90;;;;;;6180502;23;20013;-82
2022/02/21 09:54:54;;;;;;;5.45;0.50;;;4.10;99.90;;;;;;6130849;23;20021;-82
2022/02/21 09:57:20;;;;;;;10.23;0.60;;;4.10;99.90;;;;;;6179876;23;20339;-84
2022/02/21 09:59:46;;;;;;;9.13;1.20;;;4.10;99.90;;;;;;6180247;23;20001;-81
2022/02/21 10:02:19;;;;;;;8.45;0.80;;;4.10;99.90;;;;;;6175942;23;20117;-82
2022/02/21 10:04:45;;;;;;;6.90;0.40;;;4.10;99.90;;;;;;6173207;23;20386;-81
2022/02/21 10:07:11;;;;;;;4.30;0.40;;;4.10;99.90;;;;;;6174768;23;20052;-81
2022/02/21 10:09:42;;;;;;;8.20;1.15;;;4.20;99.90;;;;;;6174404;23;20537;-85
2022/02/21 10:12:22;;;;;;;5.18;0.50;;;4.20;99.90;;;;;;6150576;23;20013;-85
2022/02/21 10:14:48;;;;;;;3.75;0.50;;;4.20;99.90;;;;;;6150513;23;20026;-83
2022/02/21 10:17:15;;;;;;;6.30;0.50;;;4.30;99.90;;;;;;6177091;23;20771;-86
2022/02/21 10:19:42;;;;;;;9.70;0.90;;;4.40;99.90;;;;;;6173940;23;20021;-82
2022/02/21 10:22:13;;;;;;;10.20;0.70;;;4.50;99.90;;;;;;6175187;23;20016;-83
2022/02/21 10:24:44;;;;;;;7.63;0.77;;;4.40;99.90;;;;;;6151063;23;20005;-81
2022/02/21 10:27:24;;;;;;;7.82;0.73;;;4.40;99.90;;;;;;6151280;23;20148;-82
2022/02/21 10:30:05;;;;;;;6.90;0.70;;;4.40;99.90;;;;;;6150484;23;20028;-83
2022/02/21 10:32:34;;;;;;;6.07;0.60;;;4.40;99.90;;;;;;6174548;23;20442;-85
2022/02/21 10:35:21;;;;;;;8.52;0.60;;;4.40;99.90;;;;;;6150841;23;20029;-85
2022/02/21 10:37:58;;;;;;;7.90;0.60;;;4.40;99.90;;;;;;6175130;23;20040;-84
2022/02/21 10:40:35;;;;;;;13.52;2.05;;;4.40;99.90;;;;;;6153019;23;20441;-84
2022/02/21 10:43:04;;;;;;;8.90;0.85;;;4.30;99.90;;;;;;6176040;23;20017;-85
2022/02/21 10:45:31;;;;;;;12.57;0.80;;;4.30;99.90;;;;;;6177000;23;20229;-84
2022/02/21 10:48:08;;;;;;;8.52;1.08;;;4.20;99.90;;;;;;6174568;23;20295;-85
2022/02/21 10:50:52;;;;;;;7.90;0.70;;;4.10;99.90;;;;;;6150578;23;20015;-82
2022/02/21 10:53:23;;;;;;;8.57;0.70;;;4.10;99.90;;;;;;6152309;23;20056;-84
2022/02/21 10:55:53;;;;;;;10.57;0.70;;;4.00;99.90;;;;;;6151236;23;20032;-85
2022/02/21 10:58:25;;;;;;;;;;;4.10;99.90;;;;;;6177753;23;20052;-85
2022/02/21 11:00:53;;;;;;;12.30;0.75;;;4.00;99.90;;;;;;6153118;23;20274;-85
2022/02/21 11:03:21;;;;;;;8.23;0.80;;;4.00;99.90;;;;;;6176654;23;20459;-86
2022/02/21 11:05:51;;;;;;;7.35;0.50;;;3.90;99.90;;;;;;6127444;23;20023;-86
2022/02/21 11:08:18;;;;;;;5.63;0.47;;;3.90;99.90;;;;;;6152335;23;20009;-84
2022/02/21 11:10:47;;;;;;;7.65;0.50;;;3.90;99.90;;;;;;6150458;23;20303;-82
2022/02/21 11:13:14;;;;;;;5.13;0.60;;;3.90;99.90;;;;;;6151791;23;20009;-82
2022/02/21 11:15:40;;;;;;;5.97;0.50;;;4.00;99.90;;;;;;6176861;23;20268;-81
2022/02/21 11:18:09;;;;;;;8.00;0.80;;;4.00;99.90;;;;;;6150257;23;20442;-83
2022/02/21 11:20:35;;;;;;;5.13;0.60;;;4.00;99.90;;;;;;6151249;23;20434;-84
2022/02/21 11:23:01;;;;;;;4.10;0.47;;;4.00;99.90;;;;;;6177804;23;20457;-81
2022/02/21 11:25:38;;;;;;;7.25;0.60;;;4.10;99.90;;;;;;6151578;23;20009;-87
2022/02/21 11:28:29;;;;;;;4.57;0.47;;;4.10;99.90;;;;;;6177869;23;20009;-81
2022/02/21 11:31:01;;;;;;;9.35;0.50;;;4.10;99.90;;;;;;6151521;23;20346;-85
2022/02/21 11:33:31;;;;;;;7.68;0.50;;;4.10;99.90;;;;;;6177602;23;20394;-83
2022/02/21 11:36:01;;;;;;;7.63;0.50;;;4.20;99.90;;;;;;6151732;23;20051;-83
2022/02/21 11:38:29;;;;;;;4.15;0.40;;;4.20;99.90;;;;;;6151024;23;20295;-82
2022/02/21 11:41:06;;;;;;;7.25;1.15;;;4.20;99.90;;;;;;6151145;23;20444;-85
2022/02/21 11:43:35;;;;;;;6.65;0.40;;;4.30;99.90;;;;;;6151586;23;20020;-86
2022/02/21 11:46:08;;;;;;;8.15;0.57;;;4.30;99.90;;;;;;6151446;23;20013;-84
2022/02/21 11:48:59;;;;;;;7.15;0.50;;;4.30;99.90;;;;;;6177939;23;20465;-81
2022/02/21 11:51:31;;;;;;;9.38;0.50;;;4.40;99.90;;;;;;6151887;23;20016;-86
2022/02/21 11:54:16;;;;;;;9.50;0.60;;;4.40;99.90;;;;;;6152017;23;20013;-83
2022/02/21 11:56:51;;;;;;;7.47;0.98;;;4.50;99.90;;;;;;6126797;23;20534;-81
2022/02/21 11:59:23;;;;;;;8.30;0.50;;;4.50;99.90;;;;;;6150763;23;20016;-82
2022/02/21 12:02:12;;;;;;;11.90;0.50;;;4.50;99.90;;;;;;6155471;23;20017;-83
2022/02/21 12:04:57;;;;;;;10.88;0.68;;;4.70;99.90;;;;;;6175401;23;20016;-81
2022/02/21 12:07:31;;;;;;;13.00;0.77;;;4.80;99.90;;;;;;6150501;23;20013;-82
2022/02/21 12:10:20;;;;;;;10.77;1.40;;;5.00;99.90;;;;;;6147683;23;20040;-80
2022/02/21 12:13:11;;;;;;;11.13;0.90;;;5.00;99.90;;;;;;6173261;23;20426;-86
2022/02/21 12:15:37;;;;;;;12.82;1.08;;;5.10;99.90;;;;;;6173984;23;20469;-81
2022/02/21 12:18:23;;;;;;;14.65;1.30;;;5.20;99.90;;;;;;6175223;23;20095;-87
2022/02/21 12:20:48;;;;;;;11.75;1.10;;;5.40;99.90;;;;;;6175233;23;20096;-85
2022/02/21 12:23:14;;;;;;;19.77;1.33;;;5.50;99.90;;;;;;6175837;23;20461;-82
2022/02/21 12:25:41;;;;;;;15.65;1.27;;;5.50;99.90;;;;;;6150478;23;20051;-83
2022/02/21 12:28:24;;;;;;;21.02;2.67;;;5.60;99.90;;;;;;6176449;23;20409;-83
2022/02/21 12:30:55;;;;;;;25.45;2.85;;;5.70;99.90;;;;;;6149367;23;20040;-83
2022/02/21 12:33:26;;;;;;;25.45;2.40;;;5.70;99.90;;;;;;6151134;23;20063;-84
2022/02/21 12:36:07;;;;;;;26.85;2.13;;;5.80;99.90;;;;;;6177581;23;20040;-85
2022/02/21 12:38:38;;;;;;;27.83;2.13;;;5.90;99.90;;;;;;6175854;23;20017;-81
2022/02/21 12:41:09;;;;;;;31.63;2.88;;;6.00;99.90;;;;;;6176295;23;20015;-81
2022/02/21 12:43:53;;;;;;;31.02;2.83;;;6.00;99.90;;;;;;6177177;23;20012;-80
2022/02/21 12:46:25;;;;;;;26.70;2.25;;;6.10;99.90;;;;;;6175667;23;20482;-80
2022/02/21 12:48:51;;;;;;;29.15;2.47;;;6.10;99.90;;;;;;6151154;23;20017;-84
2022/02/21 12:51:37;;;;;;;28.92;2.60;;;6.10;99.90;;;;;;6177452;23;20005;-82
2022/02/21 12:54:11;;;;;;;30.38;2.95;;;6.20;99.90;;;;;;6177397;23;20071;-85